Time;durP1;ratioP1;P1;durP2;ratioP2;P2;SDS_P1;SDS_P2;PMS_P1;PMS_P2;Temp;Humidity;BMP_temperature;BMP_pressure;BME280_temperature;BME280_humidity;BME280_pressure;Samples;Min_cycle;Max_cycle;Signal;HPM_P1;HPM_P2
2022/10/23 00:04:26;;;;;;;15.10;13.63;;;;;;;9.37;100.00;100143.28;10583149;28;20032;-76
2022/10/23 00:09:27;;;;;;;14.27;13.18;;;;;;;9.36;100.00;100145.06;10564564;28;20056;-75
2022/10/23 00:14:29;;;;;;;15.25;13.88;;;;;;;9.84;100.00;100150.78;10582767;28;20089;-76
2022/10/23 00:19:30;;;;;;;16.15;14.70;;;;;;;9.62;100.00;100146.16;10585571;28;20051;-75
2022/10/23 00:24:32;;;;;;;14.38;13.35;;;;;;;9.59;100.00;100152.34;10564695;28;20546;-75
2022/10/23 00:29:34;;;;;;;14.15;12.73;;;;;;;9.52;100.00;100138.53;10582269;28;20062;-75
2022/10/23 00:34:35;;;;;;;15.80;14.60;;;;;;;9.35;100.00;100140.72;10582535;28;20039;-75
2022/10/23 00:39:37;;;;;;;15.65;14.40;;;;;;;9.35;100.00;100140.72;10574129;28;20138;-75
2022/10/23 00:44:39;;;;;;;15.00;13.63;;;;;;;9.67;100.00;100137.25;10593291;28;20043;-75
2022/10/23 00:49:40;;;;;;;14.40;13.35;;;;;;;9.60;100.00;100144.41;10573583;28;20047;-75
2022/10/23 00:54:44;;;;;;;13.32;12.23;;;;;;;9.43;100.00;100138.75;10592377;28;20125;-74
2022/10/23 00:59:46;;;;;;;14.27;13.00;;;;;;;9.37;100.00;100141.53;10591180;28;20544;-74
2022/10/23 01:04:47;;;;;;;13.90;12.70;;;;;;;9.34;100.00;100142.47;10591072;28;20051;-74
2022/10/23 01:09:57;;;;;;;15.35;13.70;;;;;;;9.16;100.00;100145.53;10572505;28;20050;-74
2022/10/23 01:15:18;;;;;;;14.32;13.23;;;;;;;9.14;100.00;100143.88;10571864;28;20046;-74
2022/10/23 01:20:41;;;;;;;14.80;13.70;;;;;;;9.10;100.00;100149.16;10571298;28;20457;-74
2022/10/23 01:26:02;;;;;;;15.57;14.38;;;;;;;9.06;100.00;100144.03;10570795;28;20142;-74
2022/10/23 01:31:10;;;;;;;14.75;13.68;;;;;;;9.18;100.00;100133.25;10589662;28;20044;-75
2022/10/23 01:36:15;;;;;;;14.85;13.70;;;;;;;9.02;100.00;100143.25;10572703;28;20108;-75
2022/10/23 01:41:31;;;;;;;14.55;13.38;;;;;;;9.12;100.00;100143.03;10571088;28;20069;-74
2022/10/23 01:46:36;;;;;;;12.93;11.93;;;;;;;9.15;100.00;100148.19;10570391;28;20425;-74
2022/10/23 01:51:45;;;;;;;13.52;12.52;;;;;;;8.95;100.00;100144.31;10572177;28;20066;-74
2022/10/23 01:56:50;;;;;;;13.30;12.25;;;;;;;8.85;100.00;100140.16;10570402;28;20047;-74
2022/10/23 02:01:58;;;;;;;13.00;12.10;;;;;;;8.77;100.00;100144.72;10588936;28;20039;-74
2022/10/23 02:07:01;;;;;;;13.48;12.52;;;;;;;8.77;100.00;100140.34;10569326;28;20043;-74
2022/10/23 02:12:16;;;;;;;14.57;13.48;;;;;;;8.96;100.00;100134.66;10568593;28;20062;-74
2022/10/23 02:17:56;;;;;;;13.77;12.88;;;;;;;9.03;100.00;100131.88;10569304;28;20573;-74
2022/10/23 02:23:29;;;;;;;14.43;13.30;;;;;;;8.79;100.00;100133.28;10552974;28;20043;-74
2022/10/23 02:28:39;;;;;;;15.77;14.52;;;;;;;8.87;100.00;100124.41;10566358;28;20503;-73
2022/10/23 02:33:44;;;;;;;13.70;12.60;;;;;;;8.90;100.00;100116.44;10570912;28;20047;-74
2022/10/23 02:38:46;;;;;;;14.68;13.57;;;;;;;8.90;100.00;100117.34;10588975;28;20524;-74
2022/10/23 02:44:09;;;;;;;15.40;13.85;;;;;;;9.12;100.00;100124.66;10570400;28;20065;-75
2022/10/23 02:49:21;;;;;;;15.82;14.73;;;;;;;8.93;100.00;100109.38;10587637;28;20039;-75
2022/10/23 02:54:59;;;;;;;14.95;13.82;;;;;;;8.86;100.00;100115.69;10568345;28;20044;-73
2022/10/23 03:00:16;;;;;;;15.07;13.77;;;;;;;8.67;100.00;100116.97;10566576;28;20074;-74
2022/10/23 03:05:40;;;;;;;15.05;13.95;;;;;;;8.73;100.00;100122.09;10568162;28;20102;-74
2022/10/23 03:10:42;;;;;;;14.13;13.02;;;;;;;8.85;100.00;100119.19;10567185;28;20572;-73
2022/10/23 03:15:44;;;;;;;14.35;13.27;;;;;;;8.78;100.00;100110.63;10586257;28;20047;-74
2022/10/23 03:20:48;;;;;;;14.35;12.90;;;;;;;8.73;100.00;100115.09;10567826;28;20056;-73
2022/10/23 03:25:51;;;;;;;14.90;13.75;;;;;;;8.73;100.00;100119.50;10585484;28;20035;-73
2022/10/23 03:31:15;;;;;;;14.32;13.23;;;;;;;8.63;100.00;100115.31;10565953;28;20565;-73
2022/10/23 03:36:21;;;;;;;13.70;12.70;;;;;;;8.59;100.00;100111.94;10567800;28;20390;-73
2022/10/23 03:41:23;;;;;;;13.20;12.20;;;;;;;8.53;100.00;100115.53;10567510;28;20408;-73
2022/10/23 03:46:25;;;;;;;13.13;12.23;;;;;;;8.46;100.00;100115.72;10566802;28;20089;-73
2022/10/23 03:51:28;;;;;;;13.23;12.32;;;;;;;8.38;100.00;100117.66;10566341;28;20047;-73
2022/10/23 03:56:31;;;;;;;13.05;12.15;;;;;;;8.30;100.00;100109.91;10565941;28;20094;-74
2022/10/23 04:01:33;;;;;;;13.80;12.57;;;;;;;8.17;100.00;100117.16;10565950;28;20056;-73
2022/10/23 04:06:35;;;;;;;14.80;13.55;;;;;;;8.20;100.00;100126.72;10566347;28;20047;-74
2022/10/23 04:11:38;;;;;;;13.40;12.38;;;;;;;8.24;100.00;100117.91;10565641;28;20046;-73
2022/10/23 04:16:39;;;;;;;12.82;11.82;;;;;;;8.18;100.00;100115.41;10584981;28;20046;-74
2022/10/23 04:21:42;;;;;;;12.43;11.52;;;;;;;8.20;100.00;100111.88;10549526;28;20140;-75
2022/10/23 04:26:45;;;;;;;13.23;12.32;;;;;;;8.34;100.00;100111.56;10565562;28;20573;-76
2022/10/23 04:31:47;;;;;;;13.10;12.10;;;;;;;8.65;100.00;100113.56;10549109;28;20492;-75
2022/10/23 04:36:50;;;;;;;13.05;11.95;;;;;;;8.64;100.00;100117.06;10565225;28;20142;-74
2022/10/23 04:41:52;;;;;;;12.30;11.40;;;;;;;8.68;100.00;100119.59;10565711;28;20043;-72
2022/10/23 04:46:54;;;;;;;13.10;12.18;;;;;;;8.68;100.00;100114.34;10565535;28;20097;-73
2022/10/23 04:51:57;;;;;;;12.52;11.60;;;;;;;8.73;100.00;100112.47;10565241;28;20040;-73
2022/10/23 04:57:08;;;;;;;13.52;12.43;;;;;;;8.76;100.00;100116.78;10583614;28;20273;-73
2022/10/23 05:02:27;;;;;;;11.65;10.77;;;;;;;8.72;100.00;100120.34;10550004;28;20040;-73
2022/10/23 05:07:29;;;;;;;11.27;10.25;;;;;;;8.67;100.00;100119.59;10563393;28;20558;-73
2022/10/23 05:12:46;;;;;;;12.35;11.45;;;;;;;8.67;100.00;100112.59;10583573;28;20545;-73
2022/10/23 05:17:52;;;;;;;11.95;11.00;;;;;;;8.69;100.00;100118.69;10582541;28;20407;-72
2022/10/23 05:22:56;;;;;;;14.13;13.02;;;;;;;8.75;100.00;100121.16;10586198;28;20036;-73
2022/10/23 05:27:58;;;;;;;14.43;13.18;;;;;;;8.86;100.00;100110.44;10570969;28;20047;-73
2022/10/23 05:33:01;;;;;;;14.52;13.02;;;;;;;8.90;100.00;100116.44;10570937;28;20043;-72
2022/10/23 05:38:09;;;;;;;13.48;12.48;;;;;;;8.88;100.00;100113.00;10571291;28;20483;-73
2022/10/23 05:43:11;;;;;;;15.30;14.00;;;;;;;9.01;100.00;100109.19;10570751;28;20042;-72
2022/10/23 05:48:36;;;;;;;14.63;13.52;;;;;;;8.87;100.00;100106.06;10580357;28;20139;-73
2022/10/23 05:53:56;;;;;;;19.45;15.02;;;;;;;8.94;100.00;100105.88;10589507;28;20073;-73
2022/10/23 05:59:09;;;;;;;17.00;13.82;;;;;;;9.08;100.00;100097.69;10554904;28;20043;-73
2022/10/23 06:04:34;;;;;;;17.73;15.52;;;;;;;9.13;100.00;100108.06;10577915;28;20051;-72
2022/10/23 06:09:55;;;;;;;17.73;15.73;;;;;;;9.13;100.00;100111.53;10571604;28;20043;-72
2022/10/23 06:14:58;;;;;;;15.90;14.50;;;;;;;9.19;100.00;100123.63;10569592;28;20040;-72
2022/10/23 06:20:13;;;;;;;25.27;16.60;;;;;;;9.14;100.00;100109.78;10569584;28;20051;-71
2022/10/23 06:25:16;;;;;;;18.33;16.48;;;;;;;9.24;100.00;100108.63;10568468;28;20485;-72
2022/10/23 06:30:18;;;;;;;37.47;18.15;;;;;;;9.31;100.00;100113.69;10568942;28;20071;-73
2022/10/23 06:35:22;;;;;;;21.58;19.33;;;;;;;9.30;100.00;100109.34;10568682;28;20136;-73
2022/10/23 06:40:24;;;;;;;43.65;20.15;;;;;;;9.52;100.00;100127.19;10568051;28;20519;-73
2022/10/23 06:45:38;;;;;;;21.95;19.67;;;;;;;9.51;100.00;100123.66;10542706;28;20097;-72
2022/10/23 06:50:46;;;;;;;21.35;19.23;;;;;;;9.73;100.00;100126.59;10544405;28;20138;-72
2022/10/23 06:55:58;;;;;;;21.65;19.52;;;;;;;9.86;100.00;100125.34;10542066;28;20068;-73
2022/10/23 07:01:02;;;;;;;20.67;18.77;;;;;;;9.82;100.00;100130.72;10542125;28;20044;-72
2022/10/23 07:06:06;;;;;;;21.67;19.63;;;;;;;9.80;100.00;100132.53;10542888;28;20051;-73
2022/10/23 07:11:10;;;;;;;23.30;20.08;;;;;;;10.04;100.00;100128.38;10524475;28;20397;-72
2022/10/23 07:16:18;;;;;;;21.08;19.33;;;;;;;10.20;100.00;100134.91;10533767;28;20056;-72
2022/10/23 07:21:20;;;;;;;22.45;20.55;;;;;;;10.35;100.00;100139.75;10541153;28;20036;-72
2022/10/23 07:26:27;;;;;;;23.65;21.55;;;;;;;10.51;100.00;100134.91;10540893;28;20040;-73
2022/10/23 07:31:29;;;;;;;23.20;20.83;;;;;;;10.56;100.00;100129.53;10523906;28;20067;-72
2022/10/23 07:36:49;;;;;;;24.50;21.92;;;;;;;10.68;100.00;100130.94;10541522;28;20529;-73
2022/10/23 07:41:51;;;;;;;21.85;19.85;;;;;;;10.76;100.00;100128.94;10552400;28;20501;-73
2022/10/23 07:46:53;;;;;;;21.88;19.98;;;;;;;10.82;100.00;100123.47;10584718;28;20043;-73
2022/10/23 07:51:57;;;;;;;22.50;20.55;;;;;;;10.97;100.00;100130.00;10584800;28;20027;-74
2022/10/23 07:57:06;;;;;;;21.48;19.80;;;;;;;10.97;100.00;100122.09;10566092;28;20044;-73
2022/10/23 08:02:15;;;;;;;19.45;18.05;;;;;;;11.02;100.00;100118.44;10565293;28;20126;-73
2022/10/23 08:07:18;;;;;;;17.70;16.40;;;;;;;11.32;100.00;100123.59;10548968;28;20496;-73
2022/10/23 08:12:21;;;;;;;18.00;16.13;;;;;;;11.32;100.00;100120.97;10565773;28;20070;-73
2022/10/23 08:17:23;;;;;;;17.02;15.27;;;;;;;11.48;100.00;100124.81;10566674;28;20073;-73
2022/10/23 08:22:37;;;;;;;17.33;15.95;;;;;;;11.55;100.00;100128.06;10565300;28;20501;-72
2022/10/23 08:27:39;;;;;;;15.27;14.10;;;;;;;11.71;100.00;100118.75;10565509;28;20067;-74
2022/10/23 08:32:42;;;;;;;15.15;13.95;;;;;;;12.00;100.00;100109.84;10546324;28;20043;-74
2022/10/23 08:37:46;;;;;;;14.48;13.38;;;;;;;12.15;100.00;100105.78;10579968;28;20390;-72
2022/10/23 08:42:57;;;;;;;14.30;13.15;;;;;;;12.40;100.00;100103.09;10562557;28;20122;-74
2022/10/23 08:48:09;;;;;;;13.20;12.30;;;;;;;12.40;100.00;100099.59;10582546;28;20071;-73
2022/10/23 08:54:01;;;;;;;11.98;10.98;;;;;;;12.80;100.00;100096.25;10582758;28;20404;-73
2022/10/23 08:59:13;;;;;;;;;;;;;;;12.91;100.00;100099.31;10589703;28;20068;-73
2022/10/23 09:04:15;;;;;;;10.32;9.20;;;;;;;13.21;100.00;100099.00;10591720;28;20385;-74
2022/10/23 09:09:34;;;;;;;9.68;8.88;;;;;;;13.38;100.00;100080.69;10591180;28;20127;-75
2022/10/23 09:15:01;;;;;;;9.63;8.93;;;;;;;13.54;100.00;100083.53;10573494;28;20052;-75
2022/10/23 09:20:25;;;;;;;9.70;8.90;;;;;;;13.82;100.00;100081.41;10572234;28;20109;-74
2022/10/23 09:25:38;;;;;;;9.73;8.93;;;;;;;13.91;100.00;100058.16;10583025;28;20119;-73
2022/10/23 09:30:41;;;;;;;8.18;7.57;;;;;;;14.17;100.00;100071.03;10547769;28;20044;-72
2022/10/23 09:36:12;;;;;;;7.97;7.35;;;;;;;14.38;99.52;100080.59;10547133;28;20040;-74
2022/10/23 09:41:26;;;;;;;7.10;6.55;;;;;;;14.74;96.74;100087.78;10563214;28;20066;-74
2022/10/23 09:46:43;;;;;;;7.30;6.60;;;;;;;14.94;95.13;100086.78;10576212;28;20036;-74
2022/10/23 09:51:50;;;;;;;6.55;6.00;;;;;;;14.98;94.89;100083.06;10529503;28;20051;-74
2022/10/23 09:56:54;;;;;;;6.63;6.13;;;;;;;15.20;93.68;100080.22;10548723;28;20044;-75
2022/10/23 10:01:58;;;;;;;6.88;6.15;;;;;;;15.44;92.32;100070.16;10512521;28;20048;-74
2022/10/23 10:07:32;;;;;;;6.50;5.85;;;;;;;15.67;90.91;100069.03;10501389;28;20052;-73
2022/10/23 10:12:53;;;;;;;5.95;5.45;;;;;;;15.93;90.22;100069.41;10545889;28;20055;-74
2022/10/23 10:18:18;;;;;;;6.18;5.03;;;;;;;16.24;87.74;100069.47;10527534;28;20046;-73
2022/10/23 10:23:34;;;;;;;5.13;4.75;;;;;;;16.38;88.17;100051.03;10526880;28;20505;-73
2022/10/23 10:28:48;;;;;;;6.40;5.32;;;;;;;16.89;83.43;100054.34;10527990;28;20054;-73
2022/10/23 10:33:53;;;;;;;5.40;4.57;;;;;;;17.04;82.45;100055.25;10546694;28;20048;-74
2022/10/23 10:39:15;;;;;;;4.97;4.57;;;;;;;17.38;82.85;100042.66;10528044;28;20056;-74
2022/10/23 10:44:16;;;;;;;5.93;5.38;;;;;;;17.54;80.47;100034.63;10565629;22;20396;-69
2022/10/23 10:49:30;;;;;;;4.07;3.60;;;;;;;17.88;75.81;100028.13;10585290;28;20637;-69
2022/10/23 10:55:01;;;;;;;8.73;4.35;;;;;;;17.84;76.82;100014.19;10585068;28;20044;-69
2022/10/23 11:00:15;;;;;;;4.35;3.63;;;;;;;17.97;74.88;100005.41;10584359;28;20115;-69
2022/10/23 11:05:28;;;;;;;4.25;3.88;;;;;;;17.79;75.85;99999.44;10585571;28;20095;-69
2022/10/23 11:10:30;;;;;;;4.80;4.40;;;;;;;17.58;75.54;100002.47;10583913;28;20404;-68
2022/10/23 11:15:40;;;;;;;4.95;4.55;;;;;;;17.65;74.53;100000.25;10370720;28;20050;-68
2022/10/23 11:21:23;;;;;;;4.40;4.00;;;;;;;17.69;74.25;99988.50;10583657;28;20377;-69
2022/10/23 11:26:40;;;;;;;5.22;4.30;;;;;;;17.81;75.56;99979.78;10373732;28;20049;-69
2022/10/23 11:32:00;;;;;;;5.13;4.00;;;;;;;17.68;73.34;99975.31;10372944;28;20057;-69
2022/10/23 11:37:03;;;;;;;3.83;3.50;;;;;;;17.49;75.58;99968.47;10372156;28;20112;-70
2022/10/23 11:42:05;;;;;;;3.75;3.45;;;;;;;17.59;75.25;99964.28;10372053;28;20570;-69
2022/10/23 11:47:31;;;;;;;4.10;3.80;;;;;;;17.58;74.32;99954.63;10374383;28;20200;-69
2022/10/23 11:52:51;;;;;;;3.88;3.58;;;;;;;17.21;76.06;99958.66;10355113;28;20491;-69
2022/10/23 11:58:19;;;;;;;4.45;4.10;;;;;;;16.83;78.48;99950.34;10579587;28;20126;-69
2022/10/23 12:03:26;;;;;;;3.58;3.20;;;;;;;16.58;80.62;99937.59;10582612;28;20036;-69
2022/10/23 12:08:31;;;;;;;4.60;4.30;;;;;;;16.48;80.54;99945.25;10583416;28;20047;-69
2022/10/23 12:13:35;;;;;;;5.05;4.03;;;;;;;16.23;82.83;99944.91;10583613;28;20036;-68
2022/10/23 12:18:50;;;;;;;5.05;4.55;;;;;;;16.09;83.55;99935.09;10566129;28;20134;-68
2022/10/23 12:24:06;;;;;;;4.97;4.22;;;;;;;15.95;84.96;99930.56;10582720;28;20035;-69
2022/10/23 12:29:59;;;;;;;5.18;4.75;;;;;;;15.89;84.94;99917.63;10371230;28;20045;-69
2022/10/23 12:35:46;;;;;;;5.88;4.68;;;;;;;15.58;87.12;99902.53;10478161;28;20063;-69
2022/10/23 12:40:53;;;;;;;5.40;4.90;;;;;;;15.73;85.92;99903.53;10580996;28;20051;-69
2022/10/23 12:46:02;;;;;;;5.25;4.85;;;;;;;15.67;87.33;99888.84;10573061;28;20112;-68
2022/10/23 12:51:04;;;;;;;5.78;5.38;;;;;;;15.82;86.47;99877.38;10378308;28;20100;-69
2022/10/23 12:56:06;;;;;;;5.15;4.65;;;;;;;15.81;86.34;99870.38;10591152;28;20044;-67
2022/10/23 13:01:22;;;;;;;9.68;4.57;;;;;;;15.66;86.47;99870.34;10590516;28;20176;-70
2022/10/23 13:06:26;;;;;;;4.43;4.10;;;;;;;15.76;86.33;99866.25;10589737;28;20047;-69
2022/10/23 13:11:28;;;;;;;5.63;5.13;;;;;;;15.86;87.23;99855.06;10589107;28;20100;-69
2022/10/23 13:16:34;;;;;;;5.70;4.70;;;;;;;15.88;87.58;99854.97;10571492;28;20389;-69
2022/10/23 13:21:45;;;;;;;5.63;5.05;;;;;;;15.75;87.24;99846.00;10571076;28;20048;-69
2022/10/23 13:26:47;;;;;;;5.50;5.10;;;;;;;15.81;87.26;99853.63;10591646;28;20047;-71
2022/10/23 13:31:49;;;;;;;5.72;5.30;;;;;;;15.81;87.29;99833.25;10590252;28;20054;-69
2022/10/23 13:37:20;;;;;;;5.93;5.43;;;;;;;15.71;86.83;99841.81;10377595;28;20038;-69
2022/10/23 13:42:21;;;;;;;5.30;4.90;;;;;;;15.61;87.76;99836.13;10589082;28;20052;-69
2022/10/23 13:47:23;;;;;;;6.47;5.97;;;;;;;15.58;88.71;99842.47;10589083;28;20594;-69
2022/10/23 13:52:25;;;;;;;7.00;6.50;;;;;;;15.60;88.12;99823.84;10570194;28;20501;-70
2022/10/23 13:57:27;;;;;;;5.97;5.50;;;;;;;15.57;89.05;99839.88;10590020;28;20558;-70
2022/10/23 14:02:28;;;;;;;5.88;5.47;;;;;;;15.54;89.30;99840.09;10570953;28;20053;-70
2022/10/23 14:07:30;;;;;;;7.05;6.35;;;;;;;15.58;89.14;99834.53;10589249;28;20416;-69
2022/10/23 14:12:40;;;;;;;9.90;6.30;;;;;;;15.53;89.10;99822.44;10374295;28;20117;-70
2022/10/23 14:17:43;;;;;;;6.80;6.28;;;;;;;15.36;89.37;99818.06;10589152;28;20511;-69
2022/10/23 14:22:44;;;;;;;6.50;6.00;;;;;;;15.39;89.05;99802.03;10588509;28;20036;-69
2022/10/23 14:27:47;;;;;;;7.00;6.30;;;;;;;15.24;90.55;99802.88;10587459;28;20579;-69
2022/10/23 14:32:48;;;;;;;6.97;6.38;;;;;;;15.33;89.99;99802.38;10587523;28;20067;-69
2022/10/23 14:37:50;;;;;;;7.38;6.88;;;;;;;15.19;90.81;99789.91;10569614;28;20058;-69
2022/10/23 14:42:52;;;;;;;7.32;6.82;;;;;;;15.17;90.64;99788.25;10592307;28;20040;-70
2022/10/23 14:47:53;;;;;;;7.47;6.80;;;;;;;15.01;91.26;99794.41;10585888;28;20458;-69
2022/10/23 14:52:55;;;;;;;7.13;6.60;;;;;;;15.07;89.81;99788.75;10584184;28;20105;-69
2022/10/23 14:57:57;;;;;;;7.03;6.53;;;;;;;15.07;90.28;99779.97;10569555;28;20050;-69
2022/10/23 15:02:58;;;;;;;7.90;7.10;;;;;;;14.92;90.81;99765.78;10586010;28;20051;-69
2022/10/23 15:08:00;;;;;;;8.35;7.55;;;;;;;14.75;91.21;99755.25;10585693;28;20051;-69
2022/10/23 15:13:02;;;;;;;7.43;6.82;;;;;;;14.50;93.06;99753.88;10585016;28;20040;-69
2022/10/23 15:18:04;;;;;;;6.35;5.75;;;;;;;14.60;91.16;99756.91;10584847;28;20040;-69
2022/10/23 15:23:05;;;;;;;7.97;7.38;;;;;;;14.45;92.05;99755.03;10584463;28;20070;-69
2022/10/23 15:28:07;;;;;;;8.15;7.50;;;;;;;14.31;93.21;99758.41;10565316;28;20420;-70
2022/10/23 15:33:08;;;;;;;7.97;7.38;;;;;;;14.27;93.80;99752.41;10583199;28;20039;-69
2022/10/23 15:38:10;;;;;;;8.40;7.72;;;;;;;14.38;93.01;99741.25;10583164;28;20059;-69
2022/10/23 15:43:13;;;;;;;8.10;7.50;;;;;;;14.23;94.56;99736.78;10583022;28;20097;-70
2022/10/23 15:48:14;;;;;;;9.32;8.00;;;;;;;14.17;94.88;99748.53;10584835;28;20051;-71
2022/10/23 15:53:16;;;;;;;8.85;8.07;;;;;;;13.92;97.15;99748.06;10583476;28;20039;-70
2022/10/23 15:58:18;;;;;;;11.90;8.63;;;;;;;13.91;97.71;99739.28;10582773;28;20043;-70
2022/10/23 16:03:19;;;;;;;8.30;7.60;;;;;;;13.77;98.79;99728.53;10582567;28;20055;-70
2022/10/23 16:08:22;;;;;;;9.45;8.65;;;;;;;13.83;99.30;99739.66;10564387;28;20050;-70
2022/10/23 16:13:25;;;;;;;9.38;8.55;;;;;;;13.98;96.59;99729.22;10582083;28;20420;-69
2022/10/23 16:18:27;;;;;;;9.15;8.55;;;;;;;13.89;98.17;99722.63;10368855;28;20107;-69
2022/10/23 16:23:28;;;;;;;9.13;8.35;;;;;;;13.95;97.52;99724.97;10583099;28;20071;-70
2022/10/23 16:28:31;;;;;;;9.48;8.68;;;;;;;13.84;98.32;99714.09;10566536;28;20168;-69
2022/10/23 16:33:33;;;;;;;10.23;9.43;;;;;;;13.73;98.81;99713.78;10581445;28;20105;-69
2022/10/23 16:38:35;;;;;;;9.50;8.63;;;;;;;13.78;99.32;99717.03;10581395;28;20557;-69
2022/10/23 16:43:37;;;;;;;10.13;9.23;;;;;;;13.66;99.02;99702.66;10396034;22;20411;-70
2022/10/23 16:48:53;;;;;;;10.07;9.35;;;;;;;13.76;99.44;99698.59;10564896;28;20535;-70
2022/10/23 16:53:54;;;;;;;10.35;9.35;;;;;;;13.73;99.14;99701.44;10564542;28;20043;-71
2022/10/23 16:58:58;;;;;;;10.40;9.60;;;;;;;13.58;100.00;99704.81;10583770;28;20361;-71
2022/10/23 17:04:05;;;;;;;10.45;9.60;;;;;;;13.65;99.54;99694.81;10565912;28;20035;-71
2022/10/23 17:09:07;;;;;;;10.80;9.98;;;;;;;13.71;99.30;99692.69;10586881;28;20062;-71
2022/10/23 17:14:16;;;;;;;11.32;10.52;;;;;;;13.67;99.21;99687.66;10568889;28;20054;-72
2022/10/23 17:19:22;;;;;;;11.15;10.23;;;;;;;13.50;99.86;99668.25;10571173;28;20048;-72
2022/10/23 17:24:44;;;;;;;11.40;10.57;;;;;;;13.52;100.00;99678.72;10592081;28;20040;-71
2022/10/23 17:29:51;;;;;;;11.38;10.48;;;;;;;13.48;100.00;99662.16;10575663;28;20063;-71
2022/10/23 17:34:53;;;;;;;14.95;13.82;;;;;;;13.57;100.00;99674.06;10574224;28;20039;-72
2022/10/23 17:39:55;;;;;;;14.60;13.48;;;;;;;13.58;100.00;99665.19;10572753;28;20075;-71
2022/10/23 17:45:01;;;;;;;14.65;13.55;;;;;;;13.52;100.00;99653.16;10590804;28;20043;-71
2022/10/23 17:50:05;;;;;;;15.55;14.23;;;;;;;13.53;100.00;99643.44;10590876;28;20458;-71
2022/10/23 17:55:07;;;;;;;16.70;15.15;;;;;;;13.46;100.00;99627.06;10571469;28;20088;-71
2022/10/23 18:00:10;;;;;;;16.02;14.93;;;;;;;13.27;100.00;99637.66;10590668;28;20043;-71
2022/10/23 18:05:14;;;;;;;17.88;16.58;;;;;;;13.35;100.00;99626.75;10592432;28;20036;-72
2022/10/23 18:10:16;;;;;;;17.02;15.75;;;;;;;13.29;100.00;99624.41;10590784;28;20047;-72
2022/10/23 18:15:18;;;;;;;17.65;16.17;;;;;;;13.20;100.00;99625.69;10590351;28;20039;-71
2022/10/23 18:20:19;;;;;;;19.45;17.50;;;;;;;13.13;100.00;99625.13;10589812;28;20051;-71
2022/10/23 18:25:21;;;;;;;19.95;18.25;;;;;;;13.12;100.00;99607.59;10590083;28;20036;-72
2022/10/23 18:30:23;;;;;;;20.95;19.35;;;;;;;13.02;100.00;99597.56;10570417;28;20039;-72
2022/10/23 18:35:25;;;;;;;21.42;19.65;;;;;;;12.81;100.00;99588.91;10587699;28;20046;-72
2022/10/23 18:40:26;;;;;;;20.77;19.38;;;;;;;12.80;100.00;99585.41;10588079;28;20067;-70
2022/10/23 18:45:29;;;;;;;21.15;19.55;;;;;;;12.91;100.00;99584.03;10568493;28;20074;-71
2022/10/23 18:50:35;;;;;;;20.50;19.02;;;;;;;12.88;100.00;99574.47;10587284;28;20052;-71
2022/10/23 18:55:44;;;;;;;22.58;20.83;;;;;;;12.89;100.00;99541.91;10551345;28;20101;-72
2022/10/23 19:00:46;;;;;;;20.92;19.13;;;;;;;12.94;100.00;99537.25;10587772;28;20134;-71
2022/10/23 19:05:50;;;;;;;23.23;20.88;;;;;;;12.77;100.00;99561.81;10586317;28;20093;-71
2022/10/23 19:10:52;;;;;;;22.35;20.45;;;;;;;12.55;100.00;99561.13;10585445;28;20093;-71
2022/10/23 19:15:55;;;;;;;21.60;19.73;;;;;;;12.30;100.00;99574.59;10586686;28;20447;-70
2022/10/23 19:20:56;;;;;;;22.70;20.73;;;;;;;12.35;100.00;99572.59;10568185;28;20103;-71
2022/10/23 19:25:58;;;;;;;20.65;19.05;;;;;;;12.71;100.00;99550.72;10586240;28;20039;-72
2022/10/23 19:31:00;;;;;;;22.58;20.50;;;;;;;12.77;100.00;99540.72;10586197;28;20040;-71
2022/10/23 19:36:02;;;;;;;22.08;20.30;;;;;;;12.77;100.00;99543.34;10567291;28;20504;-71
2022/10/23 19:41:06;;;;;;;20.30;18.70;;;;;;;12.70;100.00;99539.28;10567033;28;20067;-71
2022/10/23 19:46:08;;;;;;;19.92;18.52;;;;;;;12.53;100.00;99526.94;10566536;28;20039;-71
2022/10/23 19:51:13;;;;;;;20.05;18.35;;;;;;;12.37;100.00;99508.34;10549858;28;20082;-71
2022/10/23 19:56:14;;;;;;;22.58;20.75;;;;;;;12.29;100.00;99493.81;10584659;28;20569;-71
2022/10/23 20:01:19;;;;;;;20.30;18.70;;;;;;;12.37;100.00;99495.16;10585150;28;20044;-71
2022/10/23 20:06:27;;;;;;;21.25;19.33;;;;;;;12.51;100.00;99491.88;10566708;28;20558;-72
2022/10/23 20:11:30;;;;;;;20.42;18.58;;;;;;;12.63;100.00;99491.28;10585496;28;20126;-72
2022/10/23 20:16:34;;;;;;;21.95;20.30;;;;;;;12.85;100.00;99477.88;10583445;28;20047;-70
2022/10/23 20:21:38;;;;;;;22.10;20.25;;;;;;;13.13;100.00;99472.06;10584088;28;20039;-71
2022/10/23 20:26:48;;;;;;;23.50;21.40;;;;;;;13.32;100.00;99479.06;10535705;28;20048;-71
2022/10/23 20:31:50;;;;;;;21.77;20.13;;;;;;;13.20;100.00;99474.41;10583661;28;20534;-70
2022/10/23 20:36:52;;;;;;;23.10;21.33;;;;;;;13.28;100.00;99466.94;10583375;28;20053;-71
2022/10/23 20:41:55;;;;;;;19.52;18.02;;;;;;;13.55;100.00;99459.41;10584147;28;20069;-71
2022/10/23 20:46:56;;;;;;;20.05;18.45;;;;;;;13.69;100.00;99446.31;10583410;28;20043;-71
2022/10/23 20:51:58;;;;;;;19.25;17.55;;;;;;;13.69;100.00;99469.22;10586144;28;20035;-71
2022/10/23 20:57:00;;;;;;;18.63;17.23;;;;;;;13.50;100.00;99491.34;10591701;28;20040;-71
2022/10/23 21:02:01;;;;;;;17.98;16.65;;;;;;;13.48;100.00;99506.38;10591845;28;20047;-71
2022/10/23 21:07:03;;;;;;;20.25;18.38;;;;;;;13.52;100.00;99497.38;10573176;28;20040;-70
2022/10/23 21:12:11;;;;;;;17.15;15.95;;;;;;;13.74;100.00;99496.25;10556395;28;20137;-71
2022/10/23 21:17:16;;;;;;;17.17;15.88;;;;;;;13.73;100.00;99502.47;10590211;28;20485;-70
2022/10/23 21:22:17;;;;;;;16.85;15.57;;;;;;;13.80;100.00;99532.88;10590335;28;20036;-71
2022/10/23 21:27:19;;;;;;;18.10;16.65;;;;;;;13.85;100.00;99550.19;10590365;28;20044;-70
2022/10/23 21:32:21;;;;;;;16.48;15.02;;;;;;;13.63;100.00;99578.66;10589335;28;20054;-71
2022/10/23 21:37:24;;;;;;;19.15;17.50;;;;;;;13.35;100.00;99602.97;10589436;28;20073;-71
2022/10/23 21:42:26;;;;;;;20.45;18.60;;;;;;;13.21;100.00;99614.19;10589344;28;20088;-72
2022/10/23 21:47:33;;;;;;;;;;;;;;;13.31;100.00;99630.47;10572340;28;20119;-72
2022/10/23 21:52:34;;;;;;;19.65;18.08;;;;;;;13.41;100.00;99644.06;10588439;28;19919;-71
2022/10/23 21:57:36;;;;;;;20.35;18.88;;;;;;;13.11;100.00;99621.72;10589149;28;20445;-70
2022/10/23 22:02:37;;;;;;;21.67;19.80;;;;;;;13.31;100.00;99633.94;10588026;28;20378;-71
2022/10/23 22:07:39;;;;;;;21.88;20.17;;;;;;;13.22;100.00;99631.75;10571449;28;20047;-73
2022/10/23 22:12:41;;;;;;;18.17;16.88;;;;;;;13.18;100.00;99650.44;10589593;28;20036;-73
2022/10/23 22:17:43;;;;;;;19.02;17.73;;;;;;;13.27;100.00;99664.06;10588709;28;20040;-72
2022/10/23 22:22:45;;;;;;;24.90;22.40;;;;;;;13.11;100.00;99656.03;10571007;28;20119;-71
2022/10/23 22:27:47;;;;;;;22.48;20.67;;;;;;;13.28;100.00;99642.03;10569770;28;20055;-71
2022/10/23 22:32:49;;;;;;;18.88;17.27;;;;;;;13.18;100.00;99611.69;10586020;28;20079;-71
2022/10/23 22:37:50;;;;;;;20.15;18.52;;;;;;;13.24;100.00;99606.16;10587407;28;20036;-71
2022/10/23 22:42:52;;;;;;;18.88;17.48;;;;;;;13.26;100.00;99592.88;10588091;28;20108;-71
2022/10/23 22:47:53;;;;;;;18.27;16.75;;;;;;;13.18;100.00;99601.13;10598069;22;20105;-74
2022/10/23 22:52:55;;;;;;;18.35;16.77;;;;;;;13.09;100.00;99596.31;10569703;28;20054;-74
2022/10/23 22:57:57;;;;;;;18.75;17.00;;;;;;;13.41;100.00;99601.81;10587240;28;20456;-73
2022/10/23 23:02:58;;;;;;;18.23;16.48;;;;;;;13.38;100.00;99600.19;10570308;28;20048;-73
2022/10/23 23:08:00;;;;;;;15.82;14.48;;;;;;;13.33;100.00;99611.00;10554153;28;20051;-75
2022/10/23 23:13:03;;;;;;;21.83;17.40;;;;;;;13.23;100.00;99617.63;10589534;28;20044;-75
2022/10/23 23:18:05;;;;;;;18.92;17.23;;;;;;;13.26;100.00;99583.19;10568132;28;20048;-75